Time;durP1;ratioP1;P1;durP2;ratioP2;P2;SDS_P1;SDS_P2;PMS_P1;PMS_P2;Temp;Humidity;BMP_temperature;BMP_pressure;BME280_temperature;BME280_humidity;BME280_pressure;Samples;Min_cycle;Max_cycle;Signal;HPM_P1;HPM_P2
2023/09/09 00:00:46;;;;;;;14.17;11.10;;;20.10;1.00;;;;;;6249429;23;20179;-88
2023/09/09 00:03:12;;;;;;;12.43;9.47;;;20.10;1.00;;;;;;6225533;23;20199;-90
2023/09/09 00:05:38;;;;;;;13.40;9.53;;;19.60;1.00;;;;;;6251851;23;20235;-89
2023/09/09 00:08:04;;;;;;;12.17;9.67;;;19.50;1.00;;;;;;6252174;23;20197;-89
2023/09/09 00:10:34;;;;;;;14.03;9.83;;;19.50;1.00;;;;;;6250456;23;20163;-90
2023/09/09 00:13:03;;;;;;;14.43;10.47;;;19.20;1.00;;;;;;6251666;23;20160;-90
2023/09/09 00:15:29;;;;;;;13.73;10.03;;;19.40;1.00;;;;;;6250812;23;20188;-90
2023/09/09 00:17:55;;;;;;;12.13;10.83;;;19.30;1.00;;;;;;6249341;23;20164;-91
2023/09/09 00:20:42;;;;;;;15.57;9.50;;;19.30;1.00;;;;;;6249535;23;20497;-89
2023/09/09 00:23:08;;;;;;;12.63;9.97;;;19.30;1.00;;;;;;6251418;23;20168;-88
2023/09/09 00:25:38;;;;;;;15.40;10.67;;;19.30;1.00;;;;;;6249953;23;20182;-89
2023/09/09 00:28:05;;;;;;;14.93;10.67;;;19.20;1.00;;;;;;6249872;23;20155;-89
2023/09/09 00:30:30;;;;;;;15.23;10.40;;;19.10;1.00;;;;;;6225765;23;20172;-90
2023/09/09 00:32:57;;;;;;;12.70;9.77;;;19.10;1.00;;;;;;6250531;23;20168;-89
2023/09/09 00:35:25;;;;;;;15.70;9.60;;;19.10;1.00;;;;;;6250416;23;20651;-89
2023/09/09 00:37:51;;;;;;;12.17;10.07;;;19.10;1.00;;;;;;6250979;23;20164;-90
2023/09/09 00:40:16;;;;;;;14.13;10.30;;;19.10;1.00;;;;;;6252607;23;20236;-91
2023/09/09 00:42:42;;;;;;;14.03;10.30;;;19.00;1.00;;;;;;6251412;23;20193;-90
2023/09/09 00:45:08;;;;;;;13.73;9.67;;;18.90;1.00;;;;;;6228373;23;20187;-89
2023/09/09 00:47:34;;;;;;;13.43;10.20;;;18.90;1.00;;;;;;6250970;23;20492;-90
2023/09/09 00:50:00;;;;;;;11.77;9.10;;;18.90;1.00;;;;;;6225411;23;20164;-91
2023/09/09 00:52:26;;;;;;;12.03;9.60;;;18.80;1.00;;;;;;6250685;23;20171;-90
2023/09/09 00:54:52;;;;;;;12.87;9.37;;;19.00;1.00;;;;;;6255249;23;20190;-91
2023/09/09 00:57:18;;;;;;;11.43;8.77;;;18.80;1.00;;;;;;6252435;23;20259;-90
2023/09/09 00:59:47;;;;;;;14.03;9.53;;;19.20;1.00;;;;;;6252422;22;20179;-90
2023/09/09 01:02:13;;;;;;;10.63;9.23;;;18.90;1.00;;;;;;6252487;23;20163;-88
2023/09/09 01:04:39;;;;;;;13.67;8.47;;;18.70;1.00;;;;;;6213634;23;20148;-91
2023/09/09 01:07:05;;;;;;;10.13;8.80;;;18.70;1.00;;;;;;6256489;23;20184;-90
2023/09/09 01:09:33;;;;;;;10.20;8.30;;;18.60;1.00;;;;;;6253799;23;20588;-87
2023/09/09 01:12:03;;;;;;;13.13;9.53;;;18.60;1.00;;;;;;6252048;23;20163;-92
2023/09/09 01:14:29;;;;;;;13.80;9.00;;;18.50;1.00;;;;;;6253498;23;20597;-89
2023/09/09 01:16:56;;;;;;;11.90;8.73;;;18.50;1.00;;;;;;6252271;22;20194;-91
2023/09/09 01:19:25;;;;;;;9.43;8.40;;;18.50;1.00;;;;;;6254111;23;20183;-91
2023/09/09 01:21:53;;;;;;;11.70;9.00;;;18.50;1.00;;;;;;6230643;23;20156;-89
2023/09/09 01:24:24;;;;;;;11.00;9.27;;;19.10;1.00;;;;;;6254775;23;20156;-90
2023/09/09 01:26:51;;;;;;;12.77;9.80;;;18.40;1.00;;;;;;6250604;23;20176;-88
2023/09/09 01:29:17;;;;;;;10.73;9.63;;;18.40;1.00;;;;;;6252322;23;20207;-91
2023/09/09 01:31:44;;;;;;;11.23;9.57;;;18.50;1.00;;;;;;6249974;23;20160;-89
2023/09/09 01:34:10;;;;;;;19.10;9.67;;;18.30;1.00;;;;;;6249949;23;20319;-91
2023/09/09 01:36:35;;;;;;;11.93;8.83;;;18.30;1.00;;;;;;6200026;23;20179;-88
2023/09/09 01:39:01;;;;;;;14.70;10.70;;;18.90;1.00;;;;;;6248841;23;20163;-88
2023/09/09 01:41:27;;;;;;;11.17;9.47;;;18.10;1.00;;;;;;6233624;23;20164;-89
2023/09/09 01:43:53;;;;;;;13.63;9.90;;;18.80;1.00;;;;;;6251352;23;20156;-91
2023/09/09 01:46:18;;;;;;;12.57;10.37;;;18.10;1.00;;;;;;6253767;23;20175;-90
2023/09/09 01:48:44;;;;;;;15.93;10.87;;;18.10;1.00;;;;;;6251857;23;20190;-89
2023/09/09 01:51:12;;;;;;;11.87;9.93;;;18.00;1.00;;;;;;6252159;23;20159;-89
2023/09/09 01:53:39;;;;;;;13.23;10.37;;;18.30;1.00;;;;;;6229382;23;20250;-91
2023/09/09 01:56:05;;;;;;;11.57;10.37;;;18.00;1.00;;;;;;6251493;23;20189;-89
2023/09/09 01:58:32;;;;;;;13.57;11.00;;;17.90;1.00;;;;;;6252578;23;20160;-90
2023/09/09 02:00:57;;;;;;;17.37;11.00;;;17.90;1.00;;;;;;6252705;23;20180;-90
2023/09/09 02:03:25;;;;;;;16.50;10.03;;;18.00;1.00;;;;;;6225654;23;20619;-90
2023/09/09 02:05:51;;;;;;;15.27;10.43;;;17.90;1.00;;;;;;6252680;23;20199;-89
2023/09/09 02:08:18;;;;;;;14.03;10.77;;;17.90;1.00;;;;;;6251181;23;20215;-89
2023/09/09 02:10:44;;;;;;;11.27;10.10;;;17.90;1.00;;;;;;6252393;23;20166;-92
2023/09/09 02:13:09;;;;;;;14.90;11.13;;;17.70;1.00;;;;;;6251098;23;20159;-89
2023/09/09 02:15:35;;;;;;;16.13;12.13;;;17.80;1.00;;;;;;6254146;23;20179;-91
2023/09/09 02:18:00;;;;;;;11.47;10.27;;;17.80;1.00;;;;;;6254486;23;20162;-92
2023/09/09 02:20:28;;;;;;;11.60;10.40;;;17.80;1.00;;;;;;6252552;23;20180;-89
2023/09/09 02:22:54;;;;;;;13.30;11.03;;;17.70;1.00;;;;;;6255042;22;20156;-91
2023/09/09 02:25:20;;;;;;;11.47;10.30;;;17.70;1.00;;;;;;6251088;23;20218;-90
2023/09/09 02:27:45;;;;;;;13.63;12.10;;;18.30;1.00;;;;;;6249976;23;20160;-90
2023/09/09 02:30:11;;;;;;;14.87;11.00;;;17.60;1.00;;;;;;6251688;23;20164;-90
2023/09/09 02:32:38;;;;;;;12.00;10.07;;;17.70;1.00;;;;;;6252697;23;20156;-90
2023/09/09 02:35:04;;;;;;;12.00;10.60;;;18.10;1.00;;;;;;6252736;23;20159;-90
2023/09/09 02:37:29;;;;;;;15.17;10.87;;;17.60;1.00;;;;;;6251312;23;20160;-91
2023/09/09 02:39:55;;;;;;;13.10;10.87;;;17.80;1.00;;;;;;6251723;23;20183;-89
2023/09/09 02:42:22;;;;;;;12.67;10.37;;;17.50;1.00;;;;;;6226184;23;20156;-90
2023/09/09 02:44:56;;;;;;;11.43;10.23;;;18.30;1.00;;;;;;6251117;23;20187;-89
2023/09/09 02:47:24;;;;;;;13.47;10.13;;;19.10;1.00;;;;;;6252827;22;20186;-90
2023/09/09 02:49:50;;;;;;;14.17;10.83;;;18.00;1.00;;;;;;6252799;23;20159;-92
2023/09/09 02:52:16;;;;;;;11.63;10.43;;;17.70;1.00;;;;;;6261599;22;20144;-88
2023/09/09 02:54:44;;;;;;;11.97;10.67;;;17.40;1.00;;;;;;6259197;23;20164;-89
2023/09/09 02:57:13;;;;;;;16.20;10.87;;;17.90;1.00;;;;;;6250983;23;20179;-91
2023/09/09 02:59:39;;;;;;;12.20;10.67;;;17.50;1.00;;;;;;6254159;22;20210;-89
2023/09/09 03:02:05;;;;;;;16.27;11.53;;;17.50;1.00;;;;;;6251351;23;20171;-90
2023/09/09 03:04:31;;;;;;;13.10;10.73;;;17.70;1.00;;;;;;6252640;23;20181;-92
2023/09/09 03:07:00;;;;;;;13.10;11.33;;;17.30;1.00;;;;;;6251048;23;20271;-90
2023/09/09 03:09:31;;;;;;;12.13;10.07;;;17.90;1.00;;;;;;6252596;23;20160;-90
2023/09/09 03:12:03;;;;;;;12.13;10.40;;;17.30;1.00;;;;;;6255255;22;20644;-89
2023/09/09 03:14:29;;;;;;;14.67;10.23;;;17.30;1.00;;;;;;6251634;23;20156;-91
2023/09/09 03:16:56;;;;;;;11.67;10.00;;;17.20;1.00;;;;;;6250265;23;20179;-90
2023/09/09 03:19:24;;;;;;;14.17;10.77;;;17.20;1.00;;;;;;6253541;22;20183;-91
2023/09/09 03:21:50;;;;;;;12.43;10.47;;;17.10;1.00;;;;;;6252292;23;20155;-91
2023/09/09 03:24:22;;;;;;;14.40;10.87;;;17.10;1.00;;;;;;6252621;23;20163;-89
2023/09/09 03:26:47;;;;;;;12.23;10.93;;;17.00;1.00;;;;;;6226667;23;20179;-91
2023/09/09 03:29:13;;;;;;;14.17;12.20;;;17.20;1.00;;;;;;6252250;23;20270;-89
2023/09/09 03:31:48;;;;;;;12.20;10.97;;;18.30;1.00;;;;;;6253145;23;20178;-90
2023/09/09 03:34:15;;;;;;;14.57;11.13;;;17.10;1.00;;;;;;6251804;23;20242;-89
2023/09/09 03:36:42;;;;;;;11.33;9.83;;;17.00;1.00;;;;;;6251326;23;20225;-91
2023/09/09 03:39:08;;;;;;;15.73;10.97;;;18.50;1.00;;;;;;6252013;23;20187;-88
2023/09/09 03:41:34;;;;;;;14.70;10.97;;;17.00;1.00;;;;;;6259654;23;20155;-90
2023/09/09 03:43:59;;;;;;;12.37;9.47;;;17.00;1.00;;;;;;6254332;23;20163;-91
2023/09/09 03:46:27;;;;;;;12.33;10.43;;;16.20;1.00;;;;;;6254057;23;20175;-89
2023/09/09 03:48:57;;;;;;;13.60;10.50;;;16.90;1.00;;;;;;6251025;23;20198;-90
2023/09/09 03:51:23;;;;;;;12.13;10.30;;;16.70;1.00;;;;;;6250414;23;20219;-91
2023/09/09 03:53:49;;;;;;;11.90;10.33;;;16.80;1.00;;;;;;6250770;23;20159;-90
2023/09/09 03:56:16;;;;;;;14.13;10.30;;;16.70;1.00;;;;;;6250279;23;20206;-90
2023/09/09 03:58:42;;;;;;;16.53;10.87;;;16.80;1.00;;;;;;6253588;23;20243;-90
2023/09/09 04:01:10;;;;;;;11.63;10.30;;;17.10;1.00;;;;;;6252390;23;20183;-90
2023/09/09 04:03:56;;;;;;;12.93;11.13;;;16.80;1.00;;;;;;6229554;23;20213;-90
2023/09/09 04:06:22;;;;;;;13.00;10.40;;;17.70;1.00;;;;;;6251848;23;20285;-91
2023/09/09 04:08:57;;;;;;;12.13;10.83;;;16.70;1.00;;;;;;6226958;23;20172;-90
2023/09/09 04:11:23;;;;;;;14.17;10.67;;;16.70;1.00;;;;;;6226917;23;20159;-89
2023/09/09 04:13:49;;;;;;;15.30;11.73;;;16.70;1.00;;;;;;6251121;23;20163;-87
2023/09/09 04:16:14;;;;;;;14.83;11.27;;;16.70;1.00;;;;;;6252070;23;20186;-91
2023/09/09 04:18:49;;;;;;;13.00;11.33;;;16.60;1.00;;;;;;6251962;23;20160;-91
2023/09/09 04:21:16;;;;;;;16.30;11.43;;;16.60;1.80;;;;;;6252120;23;20180;-90
2023/09/09 04:23:45;;;;;;;13.60;10.63;;;16.60;2.20;;;;;;6253784;23;20262;-91
2023/09/09 04:26:19;;;;;;;15.00;11.17;;;16.60;3.00;;;;;;6252559;23;20179;-92
2023/09/09 04:28:45;;;;;;;12.43;10.97;;;16.60;3.30;;;;;;6250641;23;20166;-90
2023/09/09 04:31:11;;;;;;;13.63;10.77;;;16.60;2.90;;;;;;6251442;23;20223;-91
2023/09/09 04:33:37;;;;;;;11.60;10.40;;;16.50;3.80;;;;;;6252252;23;20164;-90
2023/09/09 04:36:02;;;;;;;12.57;10.67;;;16.50;3.50;;;;;;6251871;23;20564;-90
2023/09/09 04:38:29;;;;;;;12.87;10.93;;;16.40;4.30;;;;;;6250277;23;20178;-90
2023/09/09 04:40:55;;;;;;;11.90;10.57;;;16.50;4.50;;;;;;6248946;23;20617;-90
2023/09/09 04:43:21;;;;;;;14.07;10.10;;;16.50;6.20;;;;;;6249892;23;20158;-90
2023/09/09 04:45:47;;;;;;;11.30;10.17;;;16.50;7.10;;;;;;6251117;23;20175;-89
2023/09/09 04:48:16;;;;;;;12.70;11.00;;;16.50;7.40;;;;;;6225558;23;20175;-90
2023/09/09 04:50:42;;;;;;;11.70;10.50;;;16.40;7.10;;;;;;6251297;23;20167;-89
2023/09/09 04:53:09;;;;;;;12.50;10.57;;;16.40;8.00;;;;;;6250917;23;20612;-91
2023/09/09 04:55:35;;;;;;;12.73;10.67;;;16.40;8.50;;;;;;6251436;23;20183;-88
2023/09/09 04:58:01;;;;;;;11.27;10.07;;;16.30;7.60;;;;;;6253036;23;20167;-91
2023/09/09 05:00:27;;;;;;;15.90;10.73;;;16.30;7.90;;;;;;6249959;23;20179;-89
2023/09/09 05:02:52;;;;;;;12.20;10.63;;;16.30;7.60;;;;;;6251919;23;20144;-91
2023/09/09 05:05:21;;;;;;;12.13;10.47;;;16.30;7.80;;;;;;6250370;23;20159;-89
2023/09/09 05:07:49;;;;;;;17.10;11.07;;;16.30;8.00;;;;;;6251495;23;20151;-90
2023/09/09 05:10:16;;;;;;;11.57;10.10;;;16.30;8.20;;;;;;6251136;23;20160;-90
2023/09/09 05:12:42;;;;;;;13.30;10.80;;;16.20;8.70;;;;;;6252342;23;20191;-91
2023/09/09 05:15:10;;;;;;;11.87;10.67;;;16.30;9.20;;;;;;6250244;23;20167;-91
2023/09/09 05:17:35;;;;;;;13.37;11.07;;;16.20;9.70;;;;;;6251518;23;20170;-92
2023/09/09 05:20:05;;;;;;;13.87;11.20;;;16.90;10.20;;;;;;6252012;23;20180;-90
2023/09/09 05:22:30;;;;;;;16.77;11.47;;;16.20;9.70;;;;;;6251392;23;20152;-90
2023/09/09 05:24:56;;;;;;;15.87;11.03;;;16.20;9.90;;;;;;6251837;23;20221;-92
2023/09/09 05:27:21;;;;;;;13.93;11.73;;;16.20;10.30;;;;;;6252534;23;20282;-91
2023/09/09 05:29:47;;;;;;;14.80;11.03;;;16.20;11.20;;;;;;6251284;23;20163;-90
2023/09/09 05:32:16;;;;;;;12.70;10.30;;;16.30;12.50;;;;;;6250719;23;20163;-90
2023/09/09 05:34:41;;;;;;;13.37;11.00;;;16.30;13.30;;;;;;6250919;22;20168;-89
2023/09/09 05:37:07;;;;;;;12.77;10.27;;;16.30;13.50;;;;;;6248970;23;20582;-89
2023/09/09 05:39:32;;;;;;;14.47;9.90;;;16.40;13.70;;;;;;6251098;22;20175;-90
2023/09/09 10:40:49;;;;;;;23.25;5.88;;;29.40;99.90;;;;;;6247803;22;20207;-50
2023/09/09 10:43:18;;;;;;;12.75;5.43;;;29.50;99.90;;;;;;6249762;22;20152;-46
2023/09/09 10:45:45;;;;;;;13.63;5.43;;;29.50;99.90;;;;;;6216435;23;20520;-49
2023/09/09 10:48:11;;;;;;;12.23;5.05;;;29.60;99.90;;;;;;6241610;23;20473;-50
2023/09/09 10:50:51;;;;;;;14.65;5.97;;;29.70;99.90;;;;;;6218082;23;20494;-46
2023/09/09 10:53:27;;;;;;;16.40;5.18;;;29.80;99.90;;;;;;6218352;23;20143;-50
2023/09/09 10:56:21;;;;;;;11.35;4.85;;;29.90;99.90;;;;;;6217924;23;20298;-50
2023/09/09 10:58:50;;;;;;;16.98;4.57;;;29.90;1.00;;;;;;6242052;23;20551;-50
2023/09/09 11:01:26;;;;;;;15.70;5.20;;;30.00;27.60;;;;;;6218109;23;20602;-50
2023/09/09 11:04:23;;;;;;;7.68;4.75;;;30.00;1.00;;;;;;6218543;23;20213;-44
2023/09/09 11:07:20;;;;;;;13.30;5.10;;;30.00;1.00;;;;;;6223272;23;20160;-49
2023/09/09 11:10:07;;;;;;;17.23;4.82;;;30.00;1.00;;;;;;6165603;23;20737;-50
2023/09/09 11:12:58;;;;;;;10.38;4.55;;;29.90;1.00;;;;;;6193648;23;20156;-46
2023/09/09 11:22:51;;;;;;;11.05;4.78;;;30.10;1.00;;;;;;6155868;23;20153;-47
2023/09/09 11:25:17;;;;;;;10.10;4.35;;;30.10;1.00;;;;;;6217286;23;20179;-49
2023/09/09 11:27:47;;;;;;;16.42;4.57;;;30.30;76.10;;;;;;6217674;23;20479;-45
2023/09/09 11:30:33;;;;;;;12.52;4.53;;;30.50;51.60;;;;;;6217390;23;20160;-48
2023/09/09 11:36:22;;;;;;;9.45;4.13;;;30.60;43.70;;;;;;6217255;23;20179;-51
2023/09/09 11:39:42;;;;;;;10.80;4.20;;;30.80;39.70;;;;;;6241286;23;20164;-47
2023/09/09 11:42:07;;;;;;;10.35;4.72;;;30.90;4.70;;;;;;6204100;23;20202;-51
2023/09/09 11:45:23;;;;;;;10.90;4.90;;;31.10;1.00;;;;;;6241308;23;20234;-46
2023/09/09 22:36:30;;;;;;;11.03;5.70;;;20.60;1.00;;;;;;6250877;22;20199;-89
2023/09/09 22:38:58;;;;;;;10.80;6.53;;;20.60;1.00;;;;;;6164296;23;20620;-90
2023/09/09 22:41:24;;;;;;;11.73;7.00;;;20.60;1.00;;;;;;6190485;23;20260;-89
2023/09/09 22:43:50;;;;;;;10.00;6.50;;;21.00;61.50;;;;;;6190609;23;20157;-89
2023/09/09 22:46:15;;;;;;;9.43;6.60;;;20.50;99.90;;;;;;6179737;23;20189;-89
2023/09/09 22:48:41;;;;;;;7.70;6.23;;;20.70;99.90;;;;;;6134965;23;20232;-88
2023/09/09 22:51:07;;;;;;;7.93;5.93;;;20.50;99.90;;;;;;6135297;23;20240;-90
2023/09/09 22:53:33;;;;;;;8.80;6.13;;;20.40;99.90;;;;;;6135208;23;20158;-91
2023/09/09 22:55:59;;;;;;;7.27;6.13;;;20.70;1.00;;;;;;6134110;23;20260;-88
2023/09/09 22:58:26;;;;;;;8.77;5.90;;;20.30;1.00;;;;;;6159161;23;20197;-88
2023/09/09 23:00:52;;;;;;;7.63;6.03;;;20.30;1.00;;;;;;6135040;23;20304;-91
2023/09/09 23:03:18;;;;;;;10.07;6.17;;;20.20;1.00;;;;;;6160257;23;20622;-88
2023/09/09 23:05:45;;;;;;;7.07;6.03;;;20.30;1.00;;;;;;6136468;23;20177;-86
2023/09/09 23:08:10;;;;;;;8.17;6.50;;;20.20;1.00;;;;;;6117796;23;20197;-91
2023/09/09 23:10:36;;;;;;;12.73;6.50;;;20.30;1.00;;;;;;6136595;23;20169;-90
2023/09/09 23:13:02;;;;;;;8.37;6.47;;;20.20;1.00;;;;;;6136496;23;20657;-90
2023/09/09 23:15:28;;;;;;;8.33;6.57;;;20.10;1.00;;;;;;6162640;23;20161;-90
2023/09/09 23:17:53;;;;;;;10.43;6.73;;;20.10;1.00;;;;;;6135378;23;20157;-89
2023/09/09 23:20:19;;;;;;;8.33;5.73;;;20.40;1.00;;;;;;6159912;23;20177;-89
2023/09/09 23:22:45;;;;;;;7.23;6.23;;;20.00;1.00;;;;;;6134617;23;20193;-90
2023/09/09 23:25:14;;;;;;;6.80;5.90;;;20.00;1.00;;;;;;6111600;23;20162;-87
2023/09/09 23:27:40;;;;;;;10.30;6.27;;;19.90;1.00;;;;;;6134705;23;20188;-89
2023/09/09 23:30:07;;;;;;;9.37;6.37;;;19.90;1.00;;;;;;6159106;23;20204;-88
2023/09/09 23:32:34;;;;;;;8.30;6.17;;;19.90;1.00;;;;;;6158744;23;20162;-88
2023/09/09 23:34:59;;;;;;;8.13;6.00;;;19.70;1.00;;;;;;6135845;23;20597;-90
2023/09/09 23:37:26;;;;;;;9.07;5.87;;;19.80;10.20;;;;;;6152513;23;20251;-89
2023/09/09 23:39:52;;;;;;;9.70;6.43;;;19.80;70.80;;;;;;6215468;23;20224;-91
2023/09/09 23:42:18;;;;;;;7.67;6.27;;;19.70;99.90;;;;;;6214617;23;20231;-89
2023/09/09 23:44:43;;;;;;;7.93;6.40;;;20.00;99.90;;;;;;6216001;23;20161;-91
2023/09/09 23:47:09;;;;;;;7.30;6.00;;;20.00;99.90;;;;;;6192248;23;20180;-91
2023/09/09 23:49:35;;;;;;;8.07;6.50;;;19.60;99.90;;;;;;6216967;23;20195;-90
2023/09/09 23:52:00;;;;;;;8.77;6.43;;;20.90;99.90;;;;;;6167006;23;20589;-90
2023/09/09 23:54:27;;;;;;;8.57;6.40;;;19.60;99.90;;;;;;6217009;23;20157;-90
2023/09/09 23:56:53;;;;;;;8.93;6.37;;;19.50;99.90;;;;;;6218008;23;20542;-91
2023/09/09 23:59:18;;;;;;;7.83;6.23;;;19.50;99.90;;;;;;6217204;23;20167;-89
